Terminal Aerodrome Forecast
Issued by NWS Charleston, WV

Current Version | Previous Version | Graphics & Text | Print | Product List | Glossary On
Versions: 1 2 3 4 5 6 7 8 9 10 11 12 13 14 15 16 17 18 19 20 21 22 23 24 25 26
000
FTUS41 KRLX 192300
TAFBKW
TAF
KBKW 192328Z 2000/2024 13010G20KT P6SM SCT020
     FM200300 14012G22KT P6SM BKN015
     FM200800 15007G15KT 6SM -DZ BR BKN008
     FM201200 17007G15KT P6SM BKN012
     FM201500 18008KT P6SM SCT025
     FM201800 18008KT P6SM SCT035=

USA.gov is the U.S. government's official web portal to all federal, state and local government web resources and services.